Al Basrah, Iraq
Current Conditions -  °F | °C
As of 8:00 PM on Thursday 27 Nov 2014 (Local Time) from ORMM Reporting Station
Clear Clear  
Wind Chill: 63°   Ceiling: Unl
Heat Index: 63°   Visibility: 6mi
Dew Point: 55°   Wind: 6mph
Humidity: 77%   Direction: 90°E
Pressure: 30.06"   Gusts: NA
Location:  30.5°N, 47.83°E
Report Text: ORMM 271700Z 09005KT CAVOK 17/13 Q1018 NOSIG
Loading
Personal Weather Stations






























Interactive Weather Map New forecast layout! Learn more

10-Day Weather Forecast

Advertisements
Track Severe Weather on mobile